sensor_id;sensor_type;location;lat;lon;timestamp;P1;durP1;ratioP1;P2;durP2;ratioP2
24761;SDS011;12865;51.934;10.330;2023-06-14T00:01:22;4.55;;;3.40;;
24761;SDS011;12865;51.934;10.330;2023-06-14T00:04:08;3.80;;;3.40;;
24761;SDS011;12865;51.934;10.330;2023-06-14T00:06:54;8.10;;;3.15;;
24761;SDS011;12865;51.934;10.330;2023-06-14T00:09:41;5.13;;;2.58;;
24761;SDS011;12865;51.934;10.330;2023-06-14T00:12:28;3.17;;;2.58;;
24761;SDS011;12865;51.934;10.330;2023-06-14T00:15:14;3.85;;;3.05;;
24761;SDS011;12865;51.934;10.330;2023-06-14T00:18:00;5.72;;;3.05;;
24761;SDS011;12865;51.934;10.330;2023-06-14T00:20:46;3.35;;;2.80;;
24761;SDS011;12865;51.934;10.330;2023-06-14T00:23:31;3.95;;;3.03;;
24761;SDS011;12865;51.934;10.330;2023-06-14T00:26:17;6.95;;;2.60;;
24761;SDS011;12865;51.934;10.330;2023-06-14T00:29:03;4.63;;;2.90;;
24761;SDS011;12865;51.934;10.330;2023-06-14T00:31:48;5.53;;;2.85;;
24761;SDS011;12865;51.934;10.330;2023-06-14T00:34:34;4.95;;;3.00;;
24761;SDS011;12865;51.934;10.330;2023-06-14T00:37:20;2.92;;;2.60;;
24761;SDS011;12865;51.934;10.330;2023-06-14T00:40:06;5.07;;;2.80;;
24761;SDS011;12865;51.934;10.330;2023-06-14T00:42:52;6.35;;;2.88;;
24761;SDS011;12865;51.934;10.330;2023-06-14T00:45:38;5.30;;;3.30;;
24761;SDS011;12865;51.934;10.330;2023-06-14T00:48:24;3.53;;;2.72;;
24761;SDS011;12865;51.934;10.330;2023-06-14T00:51:10;4.43;;;3.10;;
24761;SDS011;12865;51.934;10.330;2023-06-14T00:53:55;3.85;;;2.80;;
24761;SDS011;12865;51.934;10.330;2023-06-14T00:56:41;3.55;;;3.25;;
24761;SDS011;12865;51.934;10.330;2023-06-14T00:59:29;5.88;;;3.22;;
24761;SDS011;12865;51.934;10.330;2023-06-14T01:02:15;5.95;;;3.05;;
24761;SDS011;12865;51.934;10.330;2023-06-14T01:05:03;3.45;;;3.15;;
24761;SDS011;12865;51.934;10.330;2023-06-14T01:11:01;5.82;;;3.22;;
24761;SDS011;12865;51.934;10.330;2023-06-14T01:13:50;4.57;;;2.80;;
24761;SDS011;12865;51.934;10.330;2023-06-14T01:16:37;3.45;;;3.03;;
24761;SDS011;12865;51.934;10.330;2023-06-14T01:19:25;4.88;;;3.20;;
24761;SDS011;12865;51.934;10.330;2023-06-14T01:22:16;4.10;;;2.92;;
24761;SDS011;12865;51.934;10.330;2023-06-14T01:27:50;4.28;;;3.28;;
24761;SDS011;12865;51.934;10.330;2023-06-14T01:30:42;4.70;;;3.10;;
24761;SDS011;12865;51.934;10.330;2023-06-14T01:33:33;3.28;;;2.95;;
24761;SDS011;12865;51.934;10.330;2023-06-14T01:36:20;2.75;;;2.53;;
24761;SDS011;12865;51.934;10.330;2023-06-14T01:39:11;4.97;;;3.10;;
24761;SDS011;12865;51.934;10.330;2023-06-14T01:44:45;3.70;;;3.03;;
24761;SDS011;12865;51.934;10.330;2023-06-14T01:47:33;4.50;;;3.10;;
24761;SDS011;12865;51.934;10.330;2023-06-14T01:50:20;3.05;;;2.53;;
24761;SDS011;12865;51.934;10.330;2023-06-14T01:53:07;2.85;;;2.65;;
24761;SDS011;12865;51.934;10.330;2023-06-14T01:55:53;3.13;;;2.83;;
24761;SDS011;12865;51.934;10.330;2023-06-14T01:58:39;7.07;;;3.08;;
24761;SDS011;12865;51.934;10.330;2023-06-14T02:01:25;5.10;;;3.00;;
24761;SDS011;12865;51.934;10.330;2023-06-14T02:04:12;5.05;;;3.40;;
24761;SDS011;12865;51.934;10.330;2023-06-14T02:06:57;3.40;;;3.10;;
24761;SDS011;12865;51.934;10.330;2023-06-14T02:09:43;3.72;;;3.17;;
24761;SDS011;12865;51.934;10.330;2023-06-14T02:12:29;3.42;;;2.95;;
24761;SDS011;12865;51.934;10.330;2023-06-14T02:15:15;6.95;;;3.13;;
24761;SDS011;12865;51.934;10.330;2023-06-14T02:18:04;4.93;;;2.83;;
24761;SDS011;12865;51.934;10.330;2023-06-14T02:20:50;4.30;;;2.65;;
24761;SDS011;12865;51.934;10.330;2023-06-14T02:23:36;3.05;;;2.75;;
24761;SDS011;12865;51.934;10.330;2023-06-14T02:26:21;3.60;;;2.67;;
24761;SDS011;12865;51.934;10.330;2023-06-14T02:29:10;4.10;;;3.03;;
24761;SDS011;12865;51.934;10.330;2023-06-14T02:31:57;3.70;;;2.58;;
24761;SDS011;12865;51.934;10.330;2023-06-14T02:34:43;3.83;;;3.10;;
24761;SDS011;12865;51.934;10.330;2023-06-14T02:37:29;3.35;;;3.00;;
24761;SDS011;12865;51.934;10.330;2023-06-14T02:40:15;3.20;;;2.92;;
24761;SDS011;12865;51.934;10.330;2023-06-14T02:43:00;3.35;;;2.83;;
24761;SDS011;12865;51.934;10.330;2023-06-14T02:45:47;5.43;;;3.63;;
24761;SDS011;12865;51.934;10.330;2023-06-14T02:48:32;3.70;;;3.40;;
24761;SDS011;12865;51.934;10.330;2023-06-14T02:51:18;3.72;;;3.42;;
24761;SDS011;12865;51.934;10.330;2023-06-14T02:54:04;4.50;;;3.10;;
24761;SDS011;12865;51.934;10.330;2023-06-14T02:56:49;3.10;;;2.78;;
24761;SDS011;12865;51.934;10.330;2023-06-14T02:59:36;4.22;;;3.40;;
24761;SDS011;12865;51.934;10.330;2023-06-14T03:02:21;4.05;;;3.20;;
24761;SDS011;12865;51.934;10.330;2023-06-14T03:05:07;3.70;;;2.95;;
24761;SDS011;12865;51.934;10.330;2023-06-14T03:07:53;4.35;;;3.17;;
24761;SDS011;12865;51.934;10.330;2023-06-14T03:10:39;4.05;;;3.08;;
24761;SDS011;12865;51.934;10.330;2023-06-14T03:13:25;3.83;;;3.30;;
24761;SDS011;12865;51.934;10.330;2023-06-14T03:16:11;3.60;;;3.20;;
24761;SDS011;12865;51.934;10.330;2023-06-14T03:18:57;3.33;;;3.00;;
24761;SDS011;12865;51.934;10.330;2023-06-14T03:21:43;4.25;;;3.15;;
24761;SDS011;12865;51.934;10.330;2023-06-14T03:24:29;6.53;;;3.58;;
24761;SDS011;12865;51.934;10.330;2023-06-14T03:27:17;4.78;;;2.80;;
24761;SDS011;12865;51.934;10.330;2023-06-14T03:30:04;5.38;;;2.97;;
24761;SDS011;12865;51.934;10.330;2023-06-14T03:32:50;5.47;;;3.40;;
24761;SDS011;12865;51.934;10.330;2023-06-14T03:35:40;2.97;;;2.78;;
24761;SDS011;12865;51.934;10.330;2023-06-14T03:38:26;3.88;;;3.33;;
24761;SDS011;12865;51.934;10.330;2023-06-14T03:41:12;4.80;;;3.00;;
24761;SDS011;12865;51.934;10.330;2023-06-14T03:43:57;4.95;;;2.90;;
24761;SDS011;12865;51.934;10.330;2023-06-14T03:46:43;4.25;;;3.33;;
24761;SDS011;12865;51.934;10.330;2023-06-14T03:49:30;2.92;;;2.72;;
24761;SDS011;12865;51.934;10.330;2023-06-14T03:52:16;4.68;;;3.08;;
24761;SDS011;12865;51.934;10.330;2023-06-14T03:55:02;5.10;;;3.08;;
24761;SDS011;12865;51.934;10.330;2023-06-14T03:57:48;4.93;;;3.20;;
24761;SDS011;12865;51.934;10.330;2023-06-14T04:00:34;2.97;;;2.70;;
24761;SDS011;12865;51.934;10.330;2023-06-14T04:03:21;5.07;;;2.72;;
24761;SDS011;12865;51.934;10.330;2023-06-14T04:06:14;3.97;;;2.80;;
24761;SDS011;12865;51.934;10.330;2023-06-14T04:09:05;6.40;;;3.22;;
24761;SDS011;12865;51.934;10.330;2023-06-14T04:11:51;3.92;;;2.70;;
24761;SDS011;12865;51.934;10.330;2023-06-14T04:14:38;3.15;;;2.85;;
24761;SDS011;12865;51.934;10.330;2023-06-14T04:17:24;4.53;;;2.78;;
24761;SDS011;12865;51.934;10.330;2023-06-14T04:20:10;4.80;;;2.72;;
24761;SDS011;12865;51.934;10.330;2023-06-14T04:22:56;2.97;;;2.72;;
24761;SDS011;12865;51.934;10.330;2023-06-14T04:25:42;4.20;;;2.80;;
24761;SDS011;12865;51.934;10.330;2023-06-14T04:28:30;3.85;;;3.10;;
24761;SDS011;12865;51.934;10.330;2023-06-14T04:31:16;2.95;;;2.65;;
24761;SDS011;12865;51.934;10.330;2023-06-14T04:34:01;4.35;;;2.80;;
24761;SDS011;12865;51.934;10.330;2023-06-14T04:39:18;4.07;;;3.10;;
24761;SDS011;12865;51.934;10.330;2023-06-14T04:42:05;3.40;;;2.88;;
24761;SDS011;12865;51.934;10.330;2023-06-14T04:44:52;3.03;;;2.72;;
24761;SDS011;12865;51.934;10.330;2023-06-14T04:47:41;3.95;;;3.00;;
24761;SDS011;12865;51.934;10.330;2023-06-14T04:50:27;4.63;;;3.03;;
24761;SDS011;12865;51.934;10.330;2023-06-14T04:53:14;5.20;;;2.72;;
24761;SDS011;12865;51.934;10.330;2023-06-14T04:56:01;3.47;;;2.90;;
24761;SDS011;12865;51.934;10.330;2023-06-14T04:58:46;7.25;;;2.90;;
24761;SDS011;12865;51.934;10.330;2023-06-14T05:01:32;3.60;;;3.17;;
24761;SDS011;12865;51.934;10.330;2023-06-14T05:04:19;3.10;;;2.80;;
24761;SDS011;12865;51.934;10.330;2023-06-14T05:07:07;4.18;;;2.78;;
24761;SDS011;12865;51.934;10.330;2023-06-14T05:09:53;5.28;;;2.70;;
24761;SDS011;12865;51.934;10.330;2023-06-14T05:12:39;3.33;;;2.78;;
24761;SDS011;12865;51.934;10.330;2023-06-14T05:15:25;3.28;;;2.80;;
24761;SDS011;12865;51.934;10.330;2023-06-14T05:18:11;3.88;;;2.63;;
24761;SDS011;12865;51.934;10.330;2023-06-14T05:20:58;7.47;;;2.75;;
24761;SDS011;12865;51.934;10.330;2023-06-14T05:23:44;3.58;;;2.50;;
24761;SDS011;12865;51.934;10.330;2023-06-14T05:26:30;4.28;;;2.60;;
24761;SDS011;12865;51.934;10.330;2023-06-14T05:29:16;4.25;;;2.60;;
24761;SDS011;12865;51.934;10.330;2023-06-14T05:32:02;2.85;;;2.65;;
24761;SDS011;12865;51.934;10.330;2023-06-14T05:34:50;4.03;;;2.60;;
24761;SDS011;12865;51.934;10.330;2023-06-14T05:37:36;5.35;;;2.67;;
24761;SDS011;12865;51.934;10.330;2023-06-14T05:40:22;3.13;;;2.60;;
24761;SDS011;12865;51.934;10.330;2023-06-14T05:43:07;2.72;;;2.47;;
24761;SDS011;12865;51.934;10.330;2023-06-14T05:45:53;3.95;;;2.65;;
24761;SDS011;12865;51.934;10.330;2023-06-14T05:48:39;5.07;;;3.28;;
24761;SDS011;12865;51.934;10.330;2023-06-14T05:51:25;3.30;;;3.00;;
24761;SDS011;12865;51.934;10.330;2023-06-14T05:54:10;6.88;;;3.35;;
24761;SDS011;12865;51.934;10.330;2023-06-14T05:56:56;3.72;;;3.00;;
24761;SDS011;12865;51.934;10.330;2023-06-14T05:59:46;4.43;;;3.03;;
24761;SDS011;12865;51.934;10.330;2023-06-14T06:02:32;3.38;;;3.08;;
24761;SDS011;12865;51.934;10.330;2023-06-14T06:05:17;6.82;;;3.50;;
24761;SDS011;12865;51.934;10.330;2023-06-14T06:08:03;3.78;;;3.40;;
24761;SDS011;12865;51.934;10.330;2023-06-14T06:10:49;5.32;;;3.75;;
24761;SDS011;12865;51.934;10.330;2023-06-14T06:13:35;4.68;;;3.30;;
24761;SDS011;12865;51.934;10.330;2023-06-14T06:16:20;4.63;;;3.20;;
24761;SDS011;12865;51.934;10.330;2023-06-14T06:19:06;3.58;;;2.83;;
24761;SDS011;12865;51.934;10.330;2023-06-14T06:21:52;3.75;;;3.20;;
24761;SDS011;12865;51.934;10.330;2023-06-14T06:24:38;3.20;;;2.92;;
24761;SDS011;12865;51.934;10.330;2023-06-14T06:27:23;4.38;;;3.70;;
24761;SDS011;12865;51.934;10.330;2023-06-14T06:30:09;3.90;;;3.47;;
24761;SDS011;12865;51.934;10.330;2023-06-14T06:32:55;5.75;;;3.33;;
24761;SDS011;12865;51.934;10.330;2023-06-14T06:35:41;5.95;;;3.55;;
24761;SDS011;12865;51.934;10.330;2023-06-14T06:38:28;4.43;;;3.78;;
24761;SDS011;12865;51.934;10.330;2023-06-14T06:41:13;5.82;;;3.35;;
24761;SDS011;12865;51.934;10.330;2023-06-14T06:43:59;3.95;;;3.58;;
24761;SDS011;12865;51.934;10.330;2023-06-14T06:46:45;5.10;;;3.65;;
24761;SDS011;12865;51.934;10.330;2023-06-14T06:49:30;4.10;;;3.28;;
24761;SDS011;12865;51.934;10.330;2023-06-14T06:52:16;5.95;;;4.07;;
24761;SDS011;12865;51.934;10.330;2023-06-14T06:55:02;4.00;;;2.95;;
24761;SDS011;12865;51.934;10.330;2023-06-14T06:57:48;4.65;;;3.53;;
24761;SDS011;12865;51.934;10.330;2023-06-14T07:00:35;3.95;;;3.45;;
24761;SDS011;12865;51.934;10.330;2023-06-14T07:03:20;3.83;;;3.35;;
24761;SDS011;12865;51.934;10.330;2023-06-14T07:06:06;3.88;;;3.58;;
24761;SDS011;12865;51.934;10.330;2023-06-14T07:08:52;4.65;;;3.35;;
24761;SDS011;12865;51.934;10.330;2023-06-14T07:11:47;4.63;;;3.67;;
24761;SDS011;12865;51.934;10.330;2023-06-14T07:14:33;4.85;;;3.65;;
24761;SDS011;12865;51.934;10.330;2023-06-14T07:17:19;4.13;;;3.40;;
24761;SDS011;12865;51.934;10.330;2023-06-14T07:20:04;3.10;;;2.88;;
24761;SDS011;12865;51.934;10.330;2023-06-14T07:22:53;4.07;;;3.70;;
24761;SDS011;12865;51.934;10.330;2023-06-14T07:25:39;5.00;;;3.47;;
24761;SDS011;12865;51.934;10.330;2023-06-14T07:28:24;3.65;;;3.35;;
24761;SDS011;12865;51.934;10.330;2023-06-14T07:31:10;5.18;;;3.60;;
24761;SDS011;12865;51.934;10.330;2023-06-14T07:33:57;3.22;;;2.95;;
24761;SDS011;12865;51.934;10.330;2023-06-14T07:36:43;5.15;;;3.20;;
24761;SDS011;12865;51.934;10.330;2023-06-14T07:39:30;7.68;;;3.17;;
24761;SDS011;12865;51.934;10.330;2023-06-14T07:42:16;5.07;;;3.60;;
24761;SDS011;12865;51.934;10.330;2023-06-14T07:45:02;3.35;;;3.10;;
24761;SDS011;12865;51.934;10.330;2023-06-14T07:47:49;3.95;;;3.55;;
24761;SDS011;12865;51.934;10.330;2023-06-14T07:50:35;3.30;;;3.00;;
24761;SDS011;12865;51.934;10.330;2023-06-14T07:53:21;4.63;;;4.22;;
24761;SDS011;12865;51.934;10.330;2023-06-14T07:56:06;3.53;;;3.17;;
24761;SDS011;12865;51.934;10.330;2023-06-14T07:58:52;3.42;;;3.05;;
24761;SDS011;12865;51.934;10.330;2023-06-14T08:01:38;4.70;;;3.50;;
24761;SDS011;12865;51.934;10.330;2023-06-14T08:04:24;3.45;;;3.08;;
24761;SDS011;12865;51.934;10.330;2023-06-14T08:07:10;4.07;;;3.45;;
24761;SDS011;12865;51.934;10.330;2023-06-14T08:09:56;3.60;;;3.13;;
24761;SDS011;12865;51.934;10.330;2023-06-14T08:12:41;3.55;;;3.10;;
24761;SDS011;12865;51.934;10.330;2023-06-14T08:15:27;4.10;;;2.97;;
24761;SDS011;12865;51.934;10.330;2023-06-14T08:18:13;3.90;;;3.25;;
24761;SDS011;12865;51.934;10.330;2023-06-14T08:20:58;3.42;;;3.13;;
24761;SDS011;12865;51.934;10.330;2023-06-14T08:23:44;5.18;;;3.60;;
24761;SDS011;12865;51.934;10.330;2023-06-14T08:26:30;3.33;;;2.67;;
24761;SDS011;12865;51.934;10.330;2023-06-14T08:29:17;3.65;;;3.38;;
24761;SDS011;12865;51.934;10.330;2023-06-14T08:32:02;4.80;;;2.88;;
24761;SDS011;12865;51.934;10.330;2023-06-14T08:34:48;3.03;;;2.72;;
24761;SDS011;12865;51.934;10.330;2023-06-14T08:37:38;3.25;;;3.00;;
24761;SDS011;12865;51.934;10.330;2023-06-14T08:40:27;7.38;;;3.03;;
24761;SDS011;12865;51.934;10.330;2023-06-14T08:43:15;3.45;;;3.17;;
24761;SDS011;12865;51.934;10.330;2023-06-14T08:46:02;3.75;;;3.13;;
24761;SDS011;12865;51.934;10.330;2023-06-14T08:48:49;3.20;;;2.97;;
24761;SDS011;12865;51.934;10.330;2023-06-14T08:51:36;5.22;;;2.75;;
24761;SDS011;12865;51.934;10.330;2023-06-14T08:54:22;3.25;;;2.80;;
24761;SDS011;12865;51.934;10.330;2023-06-14T08:57:11;6.40;;;3.53;;
24761;SDS011;12865;51.934;10.330;2023-06-14T09:00:00;3.65;;;2.78;;
24761;SDS011;12865;51.934;10.330;2023-06-14T09:02:55;10.90;;;3.33;;
24761;SDS011;12865;51.934;10.330;2023-06-14T09:05:43;2.65;;;2.45;;
24761;SDS011;12865;51.934;10.330;2023-06-14T09:08:29;4.05;;;2.72;;
24761;SDS011;12865;51.934;10.330;2023-06-14T09:11:16;4.13;;;2.40;;
24761;SDS011;12865;51.934;10.330;2023-06-14T09:14:04;4.38;;;2.55;;
24761;SDS011;12865;51.934;10.330;2023-06-14T09:16:53;2.75;;;2.50;;
24761;SDS011;12865;51.934;10.330;2023-06-14T09:19:39;3.58;;;2.60;;
24761;SDS011;12865;51.934;10.330;2023-06-14T09:22:25;4.10;;;2.53;;
24761;SDS011;12865;51.934;10.330;2023-06-14T09:25:10;4.10;;;2.78;;
24761;SDS011;12865;51.934;10.330;2023-06-14T09:28:00;2.50;;;2.40;;
24761;SDS011;12865;51.934;10.330;2023-06-14T09:30:46;4.60;;;2.58;;
24761;SDS011;12865;51.934;10.330;2023-06-14T09:33:31;3.05;;;2.70;;
24761;SDS011;12865;51.934;10.330;2023-06-14T09:36:24;3.05;;;2.20;;
24761;SDS011;12865;51.934;10.330;2023-06-14T09:39:11;3.20;;;2.30;;
24761;SDS011;12865;51.934;10.330;2023-06-14T09:42:02;2.85;;;2.65;;
24761;SDS011;12865;51.934;10.330;2023-06-14T09:45:03;3.60;;;2.50;;
24761;SDS011;12865;51.934;10.330;2023-06-14T09:47:50;2.53;;;2.33;;
24761;SDS011;12865;51.934;10.330;2023-06-14T09:50:36;4.10;;;3.05;;
24761;SDS011;12865;51.934;10.330;2023-06-14T09:53:22;2.60;;;2.40;;
24761;SDS011;12865;51.934;10.330;2023-06-14T09:56:10;4.72;;;2.55;;
24761;SDS011;12865;51.934;10.330;2023-06-14T09:58:57;3.30;;;2.63;;
24761;SDS011;12865;51.934;10.330;2023-06-14T10:01:44;2.15;;;2.00;;
24761;SDS011;12865;51.934;10.330;2023-06-14T10:04:31;3.83;;;2.55;;
24761;SDS011;12865;51.934;10.330;2023-06-14T10:07:19;3.13;;;2.80;;
24761;SDS011;12865;51.934;10.330;2023-06-14T10:10:06;3.97;;;2.47;;
24761;SDS011;12865;51.934;10.330;2023-06-14T10:12:52;2.97;;;2.63;;
24761;SDS011;12865;51.934;10.330;2023-06-14T10:18:41;2.67;;;2.47;;
24761;SDS011;12865;51.934;10.330;2023-06-14T10:21:57;2.22;;;2.10;;
24761;SDS011;12865;51.934;10.330;2023-06-14T10:24:44;2.65;;;2.42;;
24761;SDS011;12865;51.934;10.330;2023-06-14T10:27:31;5.47;;;2.20;;
24761;SDS011;12865;51.934;10.330;2023-06-14T10:30:16;2.20;;;2.10;;
24761;SDS011;12865;51.934;10.330;2023-06-14T10:33:03;2.20;;;2.10;;
24761;SDS011;12865;51.934;10.330;2023-06-14T10:35:51;4.82;;;2.20;;
24761;SDS011;12865;51.934;10.330;2023-06-14T10:38:58;6.07;;;1.98;;
24761;SDS011;12865;51.934;10.330;2023-06-14T10:41:56;2.50;;;2.05;;
24761;SDS011;12865;51.934;10.330;2023-06-14T10:44:49;2.22;;;2.10;;
24761;SDS011;12865;51.934;10.330;2023-06-14T10:47:36;3.65;;;1.85;;
24761;SDS011;12865;51.934;10.330;2023-06-14T10:50:27;3.28;;;2.25;;
24761;SDS011;12865;51.934;10.330;2023-06-14T10:53:21;2.20;;;2.03;;
24761;SDS011;12865;51.934;10.330;2023-06-14T10:56:08;3.10;;;1.88;;
24761;SDS011;12865;51.934;10.330;2023-06-14T10:58:54;2.50;;;2.30;;
24761;SDS011;12865;51.934;10.330;2023-06-14T11:01:47;2.42;;;2.10;;
24761;SDS011;12865;51.934;10.330;2023-06-14T11:04:50;2.88;;;2.53;;
24761;SDS011;12865;51.934;10.330;2023-06-14T11:07:58;2.95;;;2.20;;
24761;SDS011;12865;51.934;10.330;2023-06-14T11:11:05;4.18;;;2.30;;
24761;SDS011;12865;51.934;10.330;2023-06-14T11:13:52;4.97;;;2.38;;
24761;SDS011;12865;51.934;10.330;2023-06-14T11:16:37;2.78;;;2.47;;
24761;SDS011;12865;51.934;10.330;2023-06-14T11:19:23;5.93;;;2.88;;
24761;SDS011;12865;51.934;10.330;2023-06-14T11:22:10;6.05;;;2.45;;
24761;SDS011;12865;51.934;10.330;2023-06-14T11:24:55;4.05;;;2.50;;
24761;SDS011;12865;51.934;10.330;2023-06-14T11:27:43;3.00;;;2.80;;
24761;SDS011;12865;51.934;10.330;2023-06-14T11:30:29;3.17;;;2.70;;
24761;SDS011;12865;51.934;10.330;2023-06-14T11:33:18;2.70;;;2.50;;
24761;SDS011;12865;51.934;10.330;2023-06-14T11:36:05;6.00;;;3.00;;
24761;SDS011;12865;51.934;10.330;2023-06-14T11:39:03;3.92;;;2.80;;
24761;SDS011;12865;51.934;10.330;2023-06-14T11:41:51;3.58;;;2.65;;
24761;SDS011;12865;51.934;10.330;2023-06-14T11:44:37;3.70;;;2.80;;
24761;SDS011;12865;51.934;10.330;2023-06-14T11:47:23;4.15;;;2.88;;
24761;SDS011;12865;51.934;10.330;2023-06-14T11:50:09;6.00;;;2.63;;
24761;SDS011;12865;51.934;10.330;2023-06-14T11:52:56;4.40;;;3.03;;
24761;SDS011;12865;51.934;10.330;2023-06-14T11:55:42;7.47;;;3.58;;
24761;SDS011;12865;51.934;10.330;2023-06-14T11:58:29;3.38;;;2.90;;
24761;SDS011;12865;51.934;10.330;2023-06-14T12:01:18;3.53;;;2.60;;
24761;SDS011;12865;51.934;10.330;2023-06-14T12:04:04;6.95;;;3.00;;
24761;SDS011;12865;51.934;10.330;2023-06-14T12:06:50;4.45;;;3.28;;
24761;SDS011;12865;51.934;10.330;2023-06-14T12:09:38;6.00;;;2.92;;
24761;SDS011;12865;51.934;10.330;2023-06-14T12:12:25;6.05;;;3.13;;
24761;SDS011;12865;51.934;10.330;2023-06-14T12:15:11;4.93;;;3.28;;
24761;SDS011;12865;51.934;10.330;2023-06-14T12:17:57;4.63;;;3.35;;
24761;SDS011;12865;51.934;10.330;2023-06-14T12:20:43;3.17;;;2.70;;
24761;SDS011;12865;51.934;10.330;2023-06-14T12:23:53;5.70;;;2.60;;
24761;SDS011;12865;51.934;10.330;2023-06-14T12:26:38;4.63;;;3.33;;
24761;SDS011;12865;51.934;10.330;2023-06-14T12:29:26;7.07;;;3.13;;
24761;SDS011;12865;51.934;10.330;2023-06-14T12:32:11;4.35;;;2.95;;
24761;SDS011;12865;51.934;10.330;2023-06-14T12:34:57;5.40;;;3.30;;
24761;SDS011;12865;51.934;10.330;2023-06-14T12:37:43;4.55;;;2.70;;
24761;SDS011;12865;51.934;10.330;2023-06-14T12:40:28;4.57;;;3.00;;
24761;SDS011;12865;51.934;10.330;2023-06-14T12:43:14;3.55;;;2.92;;
24761;SDS011;12865;51.934;10.330;2023-06-14T12:46:00;4.22;;;3.22;;
24761;SDS011;12865;51.934;10.330;2023-06-14T12:48:46;6.20;;;3.30;;
24761;SDS011;12865;51.934;10.330;2023-06-14T12:51:32;6.55;;;3.20;;
24761;SDS011;12865;51.934;10.330;2023-06-14T12:54:18;7.20;;;3.30;;
24761;SDS011;12865;51.934;10.330;2023-06-14T12:57:03;4.22;;;3.30;;
24761;SDS011;12865;51.934;10.330;2023-06-14T12:59:49;4.78;;;3.22;;
24761;SDS011;12865;51.934;10.330;2023-06-14T13:02:35;3.17;;;2.90;;
24761;SDS011;12865;51.934;10.330;2023-06-14T13:05:20;8.90;;;4.25;;
24761;SDS011;12865;51.934;10.330;2023-06-14T13:08:07;5.70;;;3.40;;
24761;SDS011;12865;51.934;10.330;2023-06-14T13:10:55;4.25;;;3.70;;
24761;SDS011;12865;51.934;10.330;2023-06-14T13:13:40;5.20;;;3.83;;
24761;SDS011;12865;51.934;10.330;2023-06-14T13:16:26;5.95;;;3.38;;
24761;SDS011;12865;51.934;10.330;2023-06-14T13:19:12;6.13;;;3.63;;
24761;SDS011;12865;51.934;10.330;2023-06-14T13:21:57;5.85;;;3.28;;
24761;SDS011;12865;51.934;10.330;2023-06-14T13:24:43;5.55;;;3.30;;
24761;SDS011;12865;51.934;10.330;2023-06-14T13:27:29;4.47;;;3.25;;
24761;SDS011;12865;51.934;10.330;2023-06-14T13:30:14;5.20;;;3.35;;
24761;SDS011;12865;51.934;10.330;2023-06-14T13:33:00;5.07;;;2.92;;
24761;SDS011;12865;51.934;10.330;2023-06-14T13:35:46;5.38;;;3.70;;
24761;SDS011;12865;51.934;10.330;2023-06-14T13:38:34;5.65;;;3.38;;
24761;SDS011;12865;51.934;10.330;2023-06-14T13:41:19;5.65;;;3.30;;
24761;SDS011;12865;51.934;10.330;2023-06-14T13:44:05;5.75;;;3.20;;
24761;SDS011;12865;51.934;10.330;2023-06-14T13:46:51;4.95;;;3.17;;
24761;SDS011;12865;51.934;10.330;2023-06-14T13:49:36;7.20;;;3.17;;
24761;SDS011;12865;51.934;10.330;2023-06-14T13:52:22;5.95;;;3.30;;
24761;SDS011;12865;51.934;10.330;2023-06-14T13:55:08;5.13;;;3.30;;
24761;SDS011;12865;51.934;10.330;2023-06-14T13:57:55;3.78;;;3.05;;
24761;SDS011;12865;51.934;10.330;2023-06-14T14:00:41;6.82;;;3.30;;
24761;SDS011;12865;51.934;10.330;2023-06-14T14:03:27;4.38;;;3.20;;
24761;SDS011;12865;51.934;10.330;2023-06-14T14:06:13;5.43;;;3.63;;
24761;SDS011;12865;51.934;10.330;2023-06-14T14:08:58;5.30;;;3.50;;
24761;SDS011;12865;51.934;10.330;2023-06-14T14:11:45;3.28;;;2.97;;
24761;SDS011;12865;51.934;10.330;2023-06-14T14:14:32;7.65;;;3.30;;
24761;SDS011;12865;51.934;10.330;2023-06-14T14:17:17;6.68;;;3.20;;
24761;SDS011;12865;51.934;10.330;2023-06-14T14:20:03;7.20;;;3.50;;
24761;SDS011;12865;51.934;10.330;2023-06-14T14:22:49;6.95;;;3.20;;
24761;SDS011;12865;51.934;10.330;2023-06-14T14:25:35;5.35;;;3.53;;
24761;SDS011;12865;51.934;10.330;2023-06-14T14:28:21;6.57;;;3.30;;
24761;SDS011;12865;51.934;10.330;2023-06-14T14:31:06;6.00;;;2.92;;
24761;SDS011;12865;51.934;10.330;2023-06-14T14:33:52;4.68;;;3.40;;
24761;SDS011;12865;51.934;10.330;2023-06-14T14:36:38;9.30;;;3.42;;
24761;SDS011;12865;51.934;10.330;2023-06-14T14:39:27;4.40;;;3.50;;
24761;SDS011;12865;51.934;10.330;2023-06-14T14:42:13;6.80;;;3.47;;
24761;SDS011;12865;51.934;10.330;2023-06-14T14:44:59;4.75;;;3.78;;
24761;SDS011;12865;51.934;10.330;2023-06-14T14:47:44;5.70;;;3.47;;
24761;SDS011;12865;51.934;10.330;2023-06-14T14:50:30;6.95;;;3.47;;
24761;SDS011;12865;51.934;10.330;2023-06-14T14:53:16;7.28;;;3.80;;
24761;SDS011;12865;51.934;10.330;2023-06-14T14:56:02;6.97;;;2.95;;
24761;SDS011;12865;51.934;10.330;2023-06-14T14:58:47;5.88;;;3.33;;
24761;SDS011;12865;51.934;10.330;2023-06-14T15:01:34;5.55;;;3.58;;
24761;SDS011;12865;51.934;10.330;2023-06-14T15:04:19;9.07;;;3.53;;
24761;SDS011;12865;51.934;10.330;2023-06-14T15:07:05;7.03;;;3.85;;
24761;SDS011;12865;51.934;10.330;2023-06-14T15:09:51;6.03;;;3.45;;
24761;SDS011;12865;51.934;10.330;2023-06-14T15:12:37;7.03;;;3.38;;
24761;SDS011;12865;51.934;10.330;2023-06-14T15:15:23;9.40;;;4.05;;
24761;SDS011;12865;51.934;10.330;2023-06-14T15:18:08;5.13;;;3.33;;
24761;SDS011;12865;51.934;10.330;2023-06-14T15:20:55;5.68;;;3.80;;
24761;SDS011;12865;51.934;10.330;2023-06-14T15:23:41;9.38;;;3.67;;
24761;SDS011;12865;51.934;10.330;2023-06-14T15:26:29;6.55;;;3.30;;
24761;SDS011;12865;51.934;10.330;2023-06-14T15:29:18;4.32;;;3.38;;
24761;SDS011;12865;51.934;10.330;2023-06-14T15:32:05;5.35;;;3.40;;
24761;SDS011;12865;51.934;10.330;2023-06-14T15:34:51;6.78;;;3.60;;
24761;SDS011;12865;51.934;10.330;2023-06-14T15:37:37;5.53;;;3.53;;
24761;SDS011;12865;51.934;10.330;2023-06-14T15:40:23;7.28;;;3.40;;
24761;SDS011;12865;51.934;10.330;2023-06-14T15:43:09;3.83;;;3.30;;
24761;SDS011;12865;51.934;10.330;2023-06-14T15:45:54;5.40;;;3.72;;
24761;SDS011;12865;51.934;10.330;2023-06-14T15:48:40;4.07;;;3.28;;
24761;SDS011;12865;51.934;10.330;2023-06-14T15:51:26;7.97;;;3.70;;
24761;SDS011;12865;51.934;10.330;2023-06-14T15:54:11;6.30;;;3.53;;
24761;SDS011;12865;51.934;10.330;2023-06-14T15:56:57;6.20;;;3.00;;
24761;SDS011;12865;51.934;10.330;2023-06-14T15:59:43;4.20;;;3.22;;
24761;SDS011;12865;51.934;10.330;2023-06-14T16:02:28;7.20;;;3.28;;
24761;SDS011;12865;51.934;10.330;2023-06-14T16:05:14;5.80;;;3.30;;
24761;SDS011;12865;51.934;10.330;2023-06-14T16:08:00;4.07;;;3.65;;
24761;SDS011;12865;51.934;10.330;2023-06-14T16:10:45;9.68;;;3.65;;
24761;SDS011;12865;51.934;10.330;2023-06-14T16:13:31;8.60;;;3.70;;
24761;SDS011;12865;51.934;10.330;2023-06-14T16:16:16;5.45;;;3.58;;
24761;SDS011;12865;51.934;10.330;2023-06-14T16:19:02;3.70;;;3.22;;
24761;SDS011;12865;51.934;10.330;2023-06-14T16:21:48;3.78;;;3.25;;
24761;SDS011;12865;51.934;10.330;2023-06-14T16:24:34;6.25;;;3.42;;
24761;SDS011;12865;51.934;10.330;2023-06-14T16:27:20;4.68;;;3.13;;
24761;SDS011;12865;51.934;10.330;2023-06-14T16:30:06;7.57;;;3.47;;
24761;SDS011;12865;51.934;10.330;2023-06-14T16:32:52;8.65;;;3.80;;
24761;SDS011;12865;51.934;10.330;2023-06-14T16:35:38;4.85;;;3.45;;
24761;SDS011;12865;51.934;10.330;2023-06-14T16:40:51;5.35;;;3.63;;
24761;SDS011;12865;51.934;10.330;2023-06-14T16:43:36;5.82;;;3.20;;
24761;SDS011;12865;51.934;10.330;2023-06-14T16:46:29;8.90;;;3.63;;